Buxtehude — V2BY8 — position and weather

sailwx.info

Track history (hours):
 
Tides and Currents Weather Stations Pressure Air Temp Water Temp Dewpoint Dewpoint Depression Visibility Wind Speed Wind Dir Waves Ship Positions

Buxtehude

Last reported at 2017-Aug-16 17:50 UTC. Time now 2017-Aug-18 03:03 UTC.
Position N 22°02' W 017°22'.

Length 134 m; draft 8.6 m.

Type: Ship (hazmat cat A). MMSI: 304962000.

Date/timePositionNaut miles runAvg speedWind from/ knotsBaromVisibWave heightAir tempDewpointWater temp
2017-Aug-16 17:50N 22°02' W 017°22'913.7
2017-Aug-16 17:10N 22°11' W 017°19'1614.0
2017-Aug-16 16:01N 22°26' W 017°13'013.9
2017-Aug-16 16:00N 22°26' W 017°13'2214.1
2017-Aug-16 14:24N 22°47' W 017°05'11714.1
2017-Aug-16 06:08N 24°38' W 016°23'513.4
2017-Aug-16 05:46N 24°42' W 016°22'413.5
2017-Aug-16 05:28N 24°46' W 016°20'3813.5
2017-Aug-16 02:40N 25°22' W 016°06'1614.0
2017-Aug-16 01:31N 25°37' W 015°60'114.3
2017-Aug-16 01:28N 25°37' W 015°59'1913.9
2017-Aug-16 00:06N 25°55' W 015°53'813.4
2017-Aug-15 23:29N 26°03' W 015°50'713.5
2017-Aug-15 22:57N 26°10' W 015°47'913.7
2017-Aug-15 22:18N 26°18' W 015°43'713.9
2017-Aug-15 21:49N 26°25' W 015°41'614.2
2017-Aug-15 21:22N 26°31' W 015°39'2014.8
2017-Aug-15 20:02N 26°49' W 015°32'1814.9
2017-Aug-15 18:49N 27°07' W 015°25'514.7
2017-Aug-15 18:30N 27°11' W 015°23'814.4
2017-Aug-15 17:54N 27°19' W 015°20'714.5
2017-Aug-15 17:23N 27°26' W 015°17'614.9
2017-Aug-15 17:00N 27°31' W 015°15'714.6
2017-Aug-15 16:30N 27°38' W 015°12'714.3
2017-Aug-15 16:00N 27°45' W 015°10'714.1
2017-Aug-15 15:30N 27°52' W 015°07'714.0
2017-Aug-15 15:00N 27°59' W 015°05'510.9
2017-Aug-15 14:30N 28°04' W 015°07'816.3
2017-Aug-15 14:00N 28°05' W 015°16'714.8
2017-Aug-15 13:30N 28°07' W 015°24'1 2.2
2017-Aug-15 12:53N 28°08' W 015°25'0 0.0
2017-Aug-15 12:29N 28°08' W 015°25'0 0.0
2017-Aug-15 11:59N 28°08' W 015°25'0 0.0
2017-Aug-15 11:29N 28°08' W 015°25'0 0.0
2017-Aug-15 10:52N 28°08' W 015°25'0 0.0
2017-Aug-15 10:22N 28°08' W 015°25'0 0.0
2017-Aug-15 09:58N 28°08' W 015°25'0 0.0
2017-Aug-15 09:28N 28°08' W 015°25'0 0.0
2017-Aug-15 08:58N 28°08' W 015°25'0 0.0
2017-Aug-15 08:24N 28°08' W 015°25'0 0.0
2017-Aug-15 07:45N 28°08' W 015°25'0 0.0
2017-Aug-15 07:15N 28°08' W 015°25'0 0.0
2017-Aug-15 06:57N 28°08' W 015°25'0 0.0
2017-Aug-15 06:27N 28°08' W 015°25'0 0.0
2017-Aug-15 05:53N 28°08' W 015°25'0 0.0
2017-Aug-15 05:29N 28°08' W 015°25'0 0.0
2017-Aug-15 04:59N 28°08' W 015°25'0 0.0
2017-Aug-15 04:29N 28°08' W 015°25'0 0.0
2017-Aug-15 03:56N 28°08' W 015°25'0 0.0
2017-Aug-15 03:19N 28°08' W 015°25'0 0.0
2017-Aug-15 02:58N 28°08' W 015°25'0 0.0
2017-Aug-15 02:28N 28°08' W 015°25'0 0.0
2017-Aug-15 01:58N 28°08' W 015°25'0 0.0
2017-Aug-15 01:21N 28°08' W 015°25'0 0.0
2017-Aug-15 01:00N 28°08' W 015°25'0 0.0
2017-Aug-15 00:30N 28°08' W 015°25'0 0.0
2017-Aug-15 00:00N 28°08' W 015°25'0 0.0
2017-Aug-14 23:27N 28°08' W 015°25'0 0.0
2017-Aug-14 23:00N 28°08' W 015°25'0 0.0
2017-Aug-14 22:26N 28°08' W 015°25'0 0.0
2017-Aug-14 21:53N 28°08' W 015°25'0 0.0
2017-Aug-14 21:29N 28°08' W 015°25'0 0.0
2017-Aug-14 20:58N 28°08' W 015°25'0 0.0
2017-Aug-14 20:28N 28°08' W 015°25'0 0.0
2017-Aug-14 19:55N 28°08' W 015°25'0 0.0
2017-Aug-14 19:22N 28°08' W 015°25'0 0.0
2017-Aug-14 18:49N 28°08' W 015°25'0 0.0
2017-Aug-14 18:30N 28°08' W 015°25'0 0.2
2017-Aug-14 18:00N 28°08' W 015°25'2 3.5
2017-Aug-14 17:30N 28°07' W 015°24'510.1
2017-Aug-14 17:00N 28°07' W 015°18'714.2
2017-Aug-14 16:30N 28°08' W 015°10'714.9
2017-Aug-14 16:00N 28°09' W 015°01'612.8
2017-Aug-14 15:30N 28°04' W 014°57'917.3
2017-Aug-14 15:00N 27°55' W 014°60'917.3
2017-Aug-14 14:30N 27°47' W 015°03'917.0
2017-Aug-14 14:00N 27°39' W 015°06'916.9
2017-Aug-14 13:28N 27°30' W 015°10'1417.5
2017-Aug-14 12:38N 27°17' W 015°16'317.2
2017-Aug-14 12:29N 27°15' W 015°17'1017.3
2017-Aug-14 11:55N 27°05' W 015°21'917.3
2017-Aug-14 11:25N 26°57' W 015°24'917.4
2017-Aug-14 10:54N 26°49' W 015°27'2017.4
2017-Aug-14 09:46N 26°30' W 015°35'717.9
2017-Aug-14 09:23N 26°24' W 015°38'818.1
2017-Aug-14 08:55N 26°16' W 015°41'1117.7
2017-Aug-14 08:18N 26°05' W 015°45'617.8
2017-Aug-14 07:58N 25°60' W 015°47'1117.6
2017-Aug-14 07:22N 25°50' W 015°51'4117.5
2017-Aug-14 05:00N 25°11' W 016°07'3017.8
2017-Aug-14 03:18N 24°43' W 016°18'617.9
2017-Aug-14 03:00N 24°37' W 016°20'  
2017-Aug-08 23:27N 27°08' W 015°24'1017.5
2017-Aug-08 22:53N 27°17' W 015°21'1417.1
2017-Aug-08 22:03N 27°31' W 015°15'617.3
2017-Aug-08 21:41N 27°37' W 015°13'317.4
2017-Aug-08 21:30N 27°40' W 015°12'917.4
2017-Aug-08 21:00N 27°48' W 015°09'816.9
2017-Aug-08 20:30N 27°56' W 015°06'715.0
2017-Aug-08 20:00N 28°03' W 015°04'816.2
2017-Aug-08 19:30N 28°05' W 015°13'815.7
2017-Aug-08 19:01N 28°07' W 015°22'3 5.3
2017-Aug-08 18:26N 28°08' W 015°25'0 0.1
2017-Aug-08 17:56N 28°08' W 015°25'0 0.0
2017-Aug-08 17:23N 28°08' W 015°25'0 0.0
2017-Aug-08 16:50N 28°08' W 015°25'0 0.0
2017-Aug-08 16:28N 28°08' W 015°25'0 0.0
2017-Aug-08 15:58N 28°08' W 015°25'0 0.0
2017-Aug-08 15:25N 28°08' W 015°25'0 0.0
2017-Aug-08 14:52N 28°08' W 015°25'0 0.0
2017-Aug-08 14:27N 28°08' W 015°25'0 0.0
2017-Aug-08 14:00N 28°08' W 015°25'0 0.0
2017-Aug-08 13:27N 28°08' W 015°25'0 0.0
2017-Aug-08 12:54N 28°08' W 015°25'0 0.0
2017-Aug-08 12:30N 28°08' W 015°25'0 0.0
2017-Aug-08 11:59N 28°08' W 015°25'0 0.0
2017-Aug-08 11:29N 28°08' W 015°25'0 0.0
2017-Aug-08 10:56N 28°08' W 015°25'0 0.0
2017-Aug-08 10:23N 28°08' W 015°25'0 0.0
2017-Aug-08 09:59N 28°08' W 015°25'0 0.0
2017-Aug-08 09:28N 28°08' W 015°25'0 0.0
2017-Aug-08 08:58N 28°08' W 015°25'0 0.0
2017-Aug-08 08:25N 28°08' W 015°25'0 0.0
2017-Aug-08 07:52N 28°08' W 015°25'0 0.0
2017-Aug-08 07:31N 28°08' W 015°25'0 0.0
2017-Aug-08 07:00N 28°08' W 015°25'0 0.0
2017-Aug-08 06:27N 28°08' W 015°25'0 0.0
2017-Aug-08 05:54N 28°08' W 015°25'0 0.0
2017-Aug-08 05:30N 28°08' W 015°25'0 0.0
2017-Aug-08 04:59N 28°08' W 015°25'0 0.0
2017-Aug-08 04:29N 28°08' W 015°25'0 0.0
2017-Aug-08 03:56N 28°08' W 015°25'0 0.0
2017-Aug-08 03:23N 28°08' W 015°25'0 0.0
2017-Aug-08 02:46N 28°08' W 015°25'0 0.0
2017-Aug-08 02:28N 28°08' W 015°25'0 0.0
2017-Aug-08 01:58N 28°08' W 015°25'0 0.0
2017-Aug-08 01:25N 28°08' W 015°25'0 0.0
2017-Aug-08 00:49N 28°08' W 015°25'0 0.0
2017-Aug-08 00:31N 28°08' W 015°25'0 0.0
2017-Aug-08 00:00N 28°08' W 015°25'0 0.0
2017-Aug-07 23:27N 28°08' W 015°25'0 0.0
2017-Aug-07 22:54N 28°08' W 015°25'0 0.0
2017-Aug-07 22:13N 28°08' W 015°25'0 0.0
2017-Aug-07 21:55N 28°08' W 015°25'0 0.0
2017-Aug-07 21:25N 28°08' W 015°25'0 0.0
2017-Aug-07 20:46N 28°08' W 015°25'0 0.0
2017-Aug-07 20:16N 28°08' W 015°25'0 0.0
2017-Aug-07 19:57N 28°08' W 015°25'0 0.0
2017-Aug-07 19:24N 28°08' W 015°25'0 0.0
2017-Aug-07 18:51N 28°08' W 015°25'0 0.0
2017-Aug-07 18:30N 28°08' W 015°25'0 0.0
2017-Aug-07 18:00N 28°08' W 015°25'0 0.0
2017-Aug-07 17:26N 28°08' W 015°25'0 0.0
2017-Aug-07 16:53N 28°08' W 015°25'0 0.0
2017-Aug-07 16:20N 28°08' W 015°25'0 0.0
2017-Aug-07 15:59N 28°08' W 015°25'0 0.0
2017-Aug-07 15:25N 28°08' W 015°25'0 0.0
2017-Aug-07 14:55N 28°08' W 015°25'0 0.0
2017-Aug-07 14:22N 28°08' W 015°25'0 0.0
2017-Aug-07 13:49N 28°08' W 015°25'0 0.0
2017-Aug-07 13:28N 28°08' W 015°25'0 0.0
2017-Aug-07 12:57N 28°08' W 015°25'0 0.0
2017-Aug-07 12:24N 28°08' W 015°25'0 0.0
2017-Aug-07 11:51N 28°08' W 015°25'0 0.0
2017-Aug-07 11:30N 28°08' W 015°25'0 0.0
2017-Aug-07 11:00N 28°08' W 015°25'0 0.0
2017-Aug-07 10:30N 28°08' W 015°25'1 1.2
2017-Aug-07 10:01N 28°08' W 015°25'1 1.4
2017-Aug-07 09:20N 28°09' W 015°25'0 0.0
2017-Aug-07 08:59N 28°09' W 015°25'0 0.0
2017-Aug-07 08:28N 28°09' W 015°25'0 0.0
2017-Aug-07 07:55N 28°09' W 015°25'0 0.0
2017-Aug-07 07:22N 28°09' W 015°25'0 0.0
2017-Aug-07 06:58N 28°09' W 015°25'0 0.0
2017-Aug-07 06:28N 28°09' W 015°25'0 0.0
2017-Aug-07 05:57N 28°09' W 015°25'0 0.0
2017-Aug-07 05:24N 28°09' W 015°25'0 0.0
2017-Aug-07 05:00N 28°09' W 015°25'0 0.0
2017-Aug-07 04:30N 28°09' W 015°25'0 0.0
2017-Aug-07 03:59N 28°09' W 015°25'0 0.0
2017-Aug-07 03:26N 28°09' W 015°25'0 0.0
2017-Aug-07 02:53N 28°09' W 015°25'0 0.0
2017-Aug-07 02:29N 28°09' W 015°25'0 0.0
2017-Aug-07 01:59N 28°09' W 015°25'0 0.0
2017-Aug-07 01:28N 28°09' W 015°25'0 0.0
2017-Aug-07 00:55N 28°09' W 015°25'0 0.0
2017-Aug-07 00:19N 28°09' W 015°25'0 0.0
2017-Aug-06 23:58N 28°09' W 015°25'0 0.0
2017-Aug-06 23:31N 28°09' W 015°25'0 0.0
2017-Aug-06 22:58N 28°09' W 015°25'1 1.2
2017-Aug-06 22:30N 28°08' W 015°25'2 4.6
2017-Aug-06 22:00N 28°07' W 015°22'713.3
2017-Aug-06 21:30N 28°08' W 015°15'714.5
2017-Aug-06 21:01N 28°08' W 015°07'714.2
2017-Aug-06 20:31N 28°08' W 014°59'611.2
2017-Aug-06 20:01N 28°02' W 014°58'714.4
2017-Aug-06 19:30N 27°55' W 015°01'714.4
2017-Aug-06 19:01N 27°49' W 015°03'714.0
2017-Aug-06 18:30N 27°42' W 015°05'714.0
2017-Aug-06 18:01N 27°35' W 015°08'  
Track history (hours):
 
Tides and Currents Weather Stations Pressure Air Temp Water Temp Dewpoint Dewpoint Depression Visibility Wind Speed Wind Dir Waves Ship Positions

Buxtehude

Last reported at 2017-Aug-16 17:50 UTC. Time now 2017-Aug-18 03:03 UTC.
Position N 22°02' W 017°22'.

Length 134 m; draft 8.6 m.

Type: Ship (hazmat cat A). MMSI: 304962000.

Date/timePositionNaut miles runAvg speedWind from/ knotsBaromVisibWave heightAir tempDewpointWater temp
2017-Aug-16 17:50N 22°02' W 017°22'913.7
2017-Aug-16 17:10N 22°11' W 017°19'1614.0
2017-Aug-16 16:01N 22°26' W 017°13'013.9
2017-Aug-16 16:00N 22°26' W 017°13'2214.1
2017-Aug-16 14:24N 22°47' W 017°05'11714.1
2017-Aug-16 06:08N 24°38' W 016°23'513.4
2017-Aug-16 05:46N 24°42' W 016°22'413.5
2017-Aug-16 05:28N 24°46' W 016°20'3813.5
2017-Aug-16 02:40N 25°22' W 016°06'1614.0
2017-Aug-16 01:31N 25°37' W 015°60'114.3
2017-Aug-16 01:28N 25°37' W 015°59'1913.9
2017-Aug-16 00:06N 25°55' W 015°53'813.4
2017-Aug-15 23:29N 26°03' W 015°50'713.5
2017-Aug-15 22:57N 26°10' W 015°47'913.7
2017-Aug-15 22:18N 26°18' W 015°43'713.9
2017-Aug-15 21:49N 26°25' W 015°41'614.2
2017-Aug-15 21:22N 26°31' W 015°39'2014.8
2017-Aug-15 20:02N 26°49' W 015°32'1814.9
2017-Aug-15 18:49N 27°07' W 015°25'514.7
2017-Aug-15 18:30N 27°11' W 015°23'814.4
2017-Aug-15 17:54N 27°19' W 015°20'714.5
2017-Aug-15 17:23N 27°26' W 015°17'614.9
2017-Aug-15 17:00N 27°31' W 015°15'714.6
2017-Aug-15 16:30N 27°38' W 015°12'714.3
2017-Aug-15 16:00N 27°45' W 015°10'714.1
2017-Aug-15 15:30N 27°52' W 015°07'714.0
2017-Aug-15 15:00N 27°59' W 015°05'510.9
2017-Aug-15 14:30N 28°04' W 015°07'816.3
2017-Aug-15 14:00N 28°05' W 015°16'714.8
2017-Aug-15 13:30N 28°07' W 015°24'1 2.2
2017-Aug-15 12:53N 28°08' W 015°25'0 0.0
2017-Aug-15 12:29N 28°08' W 015°25'0 0.0
2017-Aug-15 11:59N 28°08' W 015°25'0 0.0
2017-Aug-15 11:29N 28°08' W 015°25'0 0.0
2017-Aug-15 10:52N 28°08' W 015°25'0 0.0
2017-Aug-15 10:22N 28°08' W 015°25'0 0.0
2017-Aug-15 09:58N 28°08' W 015°25'0 0.0
2017-Aug-15 09:28N 28°08' W 015°25'0 0.0
2017-Aug-15 08:58N 28°08' W 015°25'0 0.0
2017-Aug-15 08:24N 28°08' W 015°25'0 0.0
2017-Aug-15 07:45N 28°08' W 015°25'0 0.0
2017-Aug-15 07:15N 28°08' W 015°25'0 0.0
2017-Aug-15 06:57N 28°08' W 015°25'0 0.0
2017-Aug-15 06:27N 28°08' W 015°25'0 0.0
2017-Aug-15 05:53N 28°08' W 015°25'0 0.0
2017-Aug-15 05:29N 28°08' W 015°25'0 0.0
2017-Aug-15 04:59N 28°08' W 015°25'0 0.0
2017-Aug-15 04:29N 28°08' W 015°25'0 0.0
2017-Aug-15 03:56N 28°08' W 015°25'0 0.0
2017-Aug-15 03:19N 28°08' W 015°25'0 0.0
2017-Aug-15 02:58N 28°08' W 015°25'0 0.0
2017-Aug-15 02:28N 28°08' W 015°25'0 0.0
2017-Aug-15 01:58N 28°08' W 015°25'0 0.0
2017-Aug-15 01:21N 28°08' W 015°25'0 0.0
2017-Aug-15 01:00N 28°08' W 015°25'0 0.0
2017-Aug-15 00:30N 28°08' W 015°25'0 0.0
2017-Aug-15 00:00N 28°08' W 015°25'0 0.0
2017-Aug-14 23:27N 28°08' W 015°25'0 0.0
2017-Aug-14 23:00N 28°08' W 015°25'0 0.0
2017-Aug-14 22:26N 28°08' W 015°25'0 0.0
2017-Aug-14 21:53N 28°08' W 015°25'0 0.0
2017-Aug-14 21:29N 28°08' W 015°25'0 0.0
2017-Aug-14 20:58N 28°08' W 015°25'0 0.0
2017-Aug-14 20:28N 28°08' W 015°25'0 0.0
2017-Aug-14 19:55N 28°08' W 015°25'0 0.0
2017-Aug-14 19:22N 28°08' W 015°25'0 0.0
2017-Aug-14 18:49N 28°08' W 015°25'0 0.0
2017-Aug-14 18:30N 28°08' W 015°25'0 0.2
2017-Aug-14 18:00N 28°08' W 015°25'2 3.5
2017-Aug-14 17:30N 28°07' W 015°24'510.1
2017-Aug-14 17:00N 28°07' W 015°18'714.2
2017-Aug-14 16:30N 28°08' W 015°10'714.9
2017-Aug-14 16:00N 28°09' W 015°01'612.8
2017-Aug-14 15:30N 28°04' W 014°57'917.3
2017-Aug-14 15:00N 27°55' W 014°60'917.3
2017-Aug-14 14:30N 27°47' W 015°03'917.0
2017-Aug-14 14:00N 27°39' W 015°06'916.9
2017-Aug-14 13:28N 27°30' W 015°10'1417.5
2017-Aug-14 12:38N 27°17' W 015°16'317.2
2017-Aug-14 12:29N 27°15' W 015°17'1017.3
2017-Aug-14 11:55N 27°05' W 015°21'917.3
2017-Aug-14 11:25N 26°57' W 015°24'917.4
2017-Aug-14 10:54N 26°49' W 015°27'2017.4
2017-Aug-14 09:46N 26°30' W 015°35'717.9
2017-Aug-14 09:23N 26°24' W 015°38'818.1
2017-Aug-14 08:55N 26°16' W 015°41'1117.7
2017-Aug-14 08:18N 26°05' W 015°45'617.8
2017-Aug-14 07:58N 25°60' W 015°47'1117.6
2017-Aug-14 07:22N 25°50' W 015°51'4117.5
2017-Aug-14 05:00N 25°11' W 016°07'3017.8
2017-Aug-14 03:18N 24°43' W 016°18'617.9
2017-Aug-14 03:00N 24°37' W 016°20'  
2017-Aug-08 23:27N 27°08' W 015°24'1017.5
2017-Aug-08 22:53N 27°17' W 015°21'1417.1
2017-Aug-08 22:03N 27°31' W 015°15'617.3
2017-Aug-08 21:41N 27°37' W 015°13'317.4
2017-Aug-08 21:30N 27°40' W 015°12'917.4
2017-Aug-08 21:00N 27°48' W 015°09'816.9
2017-Aug-08 20:30N 27°56' W 015°06'715.0
2017-Aug-08 20:00N 28°03' W 015°04'816.2
2017-Aug-08 19:30N 28°05' W 015°13'815.7
2017-Aug-08 19:01N 28°07' W 015°22'3 5.3
2017-Aug-08 18:26N 28°08' W 015°25'0 0.1
2017-Aug-08 17:56N 28°08' W 015°25'0 0.0
2017-Aug-08 17:23N 28°08' W 015°25'0 0.0
2017-Aug-08 16:50N 28°08' W 015°25'0 0.0
2017-Aug-08 16:28N 28°08' W 015°25'0 0.0
2017-Aug-08 15:58N 28°08' W 015°25'0 0.0
2017-Aug-08 15:25N 28°08' W 015°25'0 0.0
2017-Aug-08 14:52N 28°08' W 015°25'0 0.0
2017-Aug-08 14:27N 28°08' W 015°25'0 0.0
2017-Aug-08 14:00N 28°08' W 015°25'0 0.0
2017-Aug-08 13:27N 28°08' W 015°25'0 0.0
2017-Aug-08 12:54N 28°08' W 015°25'0 0.0
2017-Aug-08 12:30N 28°08' W 015°25'0 0.0
2017-Aug-08 11:59N 28°08' W 015°25'0 0.0
2017-Aug-08 11:29N 28°08' W 015°25'0 0.0
2017-Aug-08 10:56N 28°08' W 015°25'0 0.0
2017-Aug-08 10:23N 28°08' W 015°25'0 0.0
2017-Aug-08 09:59N 28°08' W 015°25'0 0.0
2017-Aug-08 09:28N 28°08' W 015°25'0 0.0
2017-Aug-08 08:58N 28°08' W 015°25'0 0.0
2017-Aug-08 08:25N 28°08' W 015°25'0 0.0
2017-Aug-08 07:52N 28°08' W 015°25'0 0.0
2017-Aug-08 07:31N 28°08' W 015°25'0 0.0
2017-Aug-08 07:00N 28°08' W 015°25'0 0.0
2017-Aug-08 06:27N 28°08' W 015°25'0 0.0
2017-Aug-08 05:54N 28°08' W 015°25'0 0.0
2017-Aug-08 05:30N 28°08' W 015°25'0 0.0
2017-Aug-08 04:59N 28°08' W 015°25'0 0.0
2017-Aug-08 04:29N 28°08' W 015°25'0 0.0
2017-Aug-08 03:56N 28°08' W 015°25'0 0.0
2017-Aug-08 03:23N 28°08' W 015°25'0 0.0
2017-Aug-08 02:46N 28°08' W 015°25'0 0.0
2017-Aug-08 02:28N 28°08' W 015°25'0 0.0
2017-Aug-08 01:58N 28°08' W 015°25'0 0.0
2017-Aug-08 01:25N 28°08' W 015°25'0 0.0
2017-Aug-08 00:49N 28°08' W 015°25'0 0.0
2017-Aug-08 00:31N 28°08' W 015°25'0 0.0
2017-Aug-08 00:00N 28°08' W 015°25'0 0.0
2017-Aug-07 23:27N 28°08' W 015°25'0 0.0
2017-Aug-07 22:54N 28°08' W 015°25'0 0.0
2017-Aug-07 22:13N 28°08' W 015°25'0 0.0
2017-Aug-07 21:55N 28°08' W 015°25'0 0.0
2017-Aug-07 21:25N 28°08' W 015°25'0 0.0
2017-Aug-07 20:46N 28°08' W 015°25'0 0.0
2017-Aug-07 20:16N 28°08' W 015°25'0 0.0
2017-Aug-07 19:57N 28°08' W 015°25'0 0.0
2017-Aug-07 19:24N 28°08' W 015°25'0 0.0
2017-Aug-07 18:51N 28°08' W 015°25'0 0.0
2017-Aug-07 18:30N 28°08' W 015°25'0 0.0
2017-Aug-07 18:00N 28°08' W 015°25'0 0.0
2017-Aug-07 17:26N 28°08' W 015°25'0 0.0
2017-Aug-07 16:53N 28°08' W 015°25'0 0.0
2017-Aug-07 16:20N 28°08' W 015°25'0 0.0
2017-Aug-07 15:59N 28°08' W 015°25'0 0.0
2017-Aug-07 15:25N 28°08' W 015°25'0 0.0
2017-Aug-07 14:55N 28°08' W 015°25'0 0.0
2017-Aug-07 14:22N 28°08' W 015°25'0 0.0
2017-Aug-07 13:49N 28°08' W 015°25'0 0.0
2017-Aug-07 13:28N 28°08' W 015°25'0 0.0
2017-Aug-07 12:57N 28°08' W 015°25'0 0.0
2017-Aug-07 12:24N 28°08' W 015°25'0 0.0
2017-Aug-07 11:51N 28°08' W 015°25'0 0.0
2017-Aug-07 11:30N 28°08' W 015°25'0 0.0
2017-Aug-07 11:00N 28°08' W 015°25'0 0.0
2017-Aug-07 10:30N 28°08' W 015°25'1 1.2
2017-Aug-07 10:01N 28°08' W 015°25'1 1.4
2017-Aug-07 09:20N 28°09' W 015°25'0 0.0
2017-Aug-07 08:59N 28°09' W 015°25'0 0.0
2017-Aug-07 08:28N 28°09' W 015°25'0 0.0
2017-Aug-07 07:55N 28°09' W 015°25'0 0.0
2017-Aug-07 07:22N 28°09' W 015°25'0 0.0
2017-Aug-07 06:58N 28°09' W 015°25'0 0.0
2017-Aug-07 06:28N 28°09' W 015°25'0 0.0
2017-Aug-07 05:57N 28°09' W 015°25'0 0.0
2017-Aug-07 05:24N 28°09' W 015°25'0 0.0
2017-Aug-07 05:00N 28°09' W 015°25'0 0.0
2017-Aug-07 04:30N 28°09' W 015°25'0 0.0
2017-Aug-07 03:59N 28°09' W 015°25'0 0.0
2017-Aug-07 03:26N 28°09' W 015°25'0 0.0
2017-Aug-07 02:53N 28°09' W 015°25'0 0.0
2017-Aug-07 02:29N 28°09' W 015°25'0 0.0
2017-Aug-07 01:59N 28°09' W 015°25'0 0.0
2017-Aug-07 01:28N 28°09' W 015°25'0 0.0
2017-Aug-07 00:55N 28°09' W 015°25'0 0.0
2017-Aug-07 00:19N 28°09' W 015°25'0 0.0
2017-Aug-06 23:58N 28°09' W 015°25'0 0.0
2017-Aug-06 23:31N 28°09' W 015°25'0 0.0
2017-Aug-06 22:58N 28°09' W 015°25'1 1.2
2017-Aug-06 22:30N 28°08' W 015°25'2 4.6
2017-Aug-06 22:00N 28°07' W 015°22'713.3
2017-Aug-06 21:30N 28°08' W 015°15'714.5
2017-Aug-06 21:01N 28°08' W 015°07'714.2
2017-Aug-06 20:31N 28°08' W 014°59'611.2
2017-Aug-06 20:01N 28°02' W 014°58'714.4
2017-Aug-06 19:30N 27°55' W 015°01'714.4
2017-Aug-06 19:01N 27°49' W 015°03'714.0
2017-Aug-06 18:30N 27°42' W 015°05'714.0
2017-Aug-06 18:01N 27°35' W 015°08'  

Dump ship's entire track history